Airport ID:KMHV
Update Time (UTC):22/10/2018 04:29
Wind Speed (Knots):8
Wind Direction (Magnetic):290
Temperature (°C):19
Dew Point (°C):1
Humidity (%):29
Altimeter (inHg):29.94
Density Altitude (Feet):4000
Visibility (Miles):10+
Clouds (Hundreds of feet):FEW090
Present Weather:
METAR:METAR KMHV 220420Z AUTO 30009KT 10SM SCT090 20/01 A2994 RMK A01

The data displayed is for advisory purposes only and is not to be used for flight planning or operations.

This page is not automatically refreshed. Reload the page to see current data.